Time;durP1;ratioP1;P1;durP2;ratioP2;P2;SDS_P1;SDS_P2;PMS_P1;PMS_P2;Temp;Humidity;BMP_temperature;BMP_pressure;BME280_temperature;BME280_humidity;BME280_pressure;Samples;Min_cycle;Max_cycle;Signal;HPM_P1;HPM_P2
2022/03/25 00:01:23;;;;;;;22.50;10.30;;;;;;;;;;5073325;27;20044;-75
2022/03/25 00:03:49;;;;;;;20.45;9.18;;;;;;;;;;5076464;27;20048;-75
2022/03/25 00:06:17;;;;;;;19.67;9.75;;;;;;;;;;5066320;28;20044;-75
2022/03/25 00:08:43;;;;;;;21.05;10.00;;;;;;;;;;5092384;27;20036;-75
2022/03/25 00:11:09;;;;;;;21.38;9.25;;;;;;;;;;5068072;28;20048;-75
2022/03/25 00:13:35;;;;;;;19.45;8.45;;;;;;;;;;5067740;28;20691;-75
2022/03/25 00:16:03;;;;;;;20.45;9.32;;;;;;;;;;5071082;28;20095;-76
2022/03/25 00:18:29;;;;;;;20.08;9.40;;;;;;;;;;5084414;27;20050;-75
2022/03/25 00:20:55;;;;;;;17.67;8.93;;;;;;;;;;5088701;27;20044;-75
2022/03/25 00:23:22;;;;;;;21.58;9.30;;;;;;;;;;5089451;27;20087;-75
2022/03/25 00:25:48;;;;;;;23.27;10.32;;;;;;;;;;5087464;27;20094;-75
2022/03/25 00:28:14;;;;;;;19.17;9.70;;;;;;;;;;5091577;27;20043;-75
2022/03/25 00:30:40;;;;;;;21.55;9.60;;;;;;;;;;5090774;27;20036;-75
2022/03/25 00:33:06;;;;;;;20.67;9.45;;;;;;;;;;5088894;27;20098;-75
2022/03/25 00:35:32;;;;;;;23.67;9.48;;;;;;;;;;5077345;27;20572;-75
2022/03/25 00:37:59;;;;;;;20.85;10.05;;;;;;;;;;5075393;28;20599;-75
2022/03/25 00:40:25;;;;;;;26.80;10.93;;;;;;;;;;5089587;27;20068;-75
2022/03/25 00:42:52;;;;;;;22.55;10.93;;;;;;;;;;5069641;28;20047;-75
2022/03/25 00:45:18;;;;;;;23.38;9.65;;;;;;;;;;5086157;27;20036;-75
2022/03/25 00:47:44;;;;;;;19.10;10.63;;;;;;;;;;5086638;27;20537;-75
2022/03/25 00:50:11;;;;;;;22.33;10.70;;;;;;;;;;5089577;27;20092;-75
2022/03/25 00:52:37;;;;;;;20.58;8.98;;;;;;;;;;5093881;27;20108;-75
2022/03/25 00:55:05;;;;;;;19.83;9.05;;;;;;;;;;5085567;27;20411;-75
2022/03/25 00:57:31;;;;;;;26.85;10.43;;;;;;;;;;5071596;27;20033;-75
2022/03/25 00:59:57;;;;;;;19.67;10.02;;;;;;;;;;5089169;27;20072;-75
2022/03/25 01:02:23;;;;;;;35.40;11.68;;;;;;;;;;5093850;27;20079;-75
2022/03/25 01:04:50;;;;;;;19.70;10.30;;;;;;;;;;5085950;27;21336;-75
2022/03/25 01:07:17;;;;;;;25.25;10.65;;;;;;;;;;5073289;27;20056;-75
2022/03/25 01:09:44;;;;;;;25.48;10.07;;;;;;;;;;5090536;27;20040;-75
2022/03/25 01:12:11;;;;;;;24.25;10.93;;;;;;;;;;5084519;27;20526;-75
2022/03/25 01:14:37;;;;;;;23.95;10.90;;;;;;;;;;5068532;27;20052;-75
2022/03/25 01:17:04;;;;;;;21.48;8.55;;;;;;;;;;5067628;27;20489;-75
2022/03/25 01:19:30;;;;;;;24.25;8.63;;;;;;;;;;5072179;27;20036;-75
2022/03/25 01:21:56;;;;;;;26.15;9.98;;;;;;;;;;5093268;27;20482;-76
2022/03/25 01:24:23;;;;;;;24.20;9.32;;;;;;;;;;5064904;27;20045;-75
2022/03/25 01:26:49;;;;;;;26.10;11.13;;;;;;;;;;5071683;28;20047;-75
2022/03/25 01:29:15;;;;;;;26.20;10.75;;;;;;;;;;5093333;27;20040;-75
2022/03/25 01:31:41;;;;;;;22.15;9.40;;;;;;;;;;5089796;27;20525;-75
2022/03/25 01:34:07;;;;;;;25.33;10.68;;;;;;;;;;5078436;28;20044;-75
2022/03/25 01:36:33;;;;;;;21.65;10.63;;;;;;;;;;5085810;27;20040;-75
2022/03/25 01:39:01;;;;;;;23.08;10.02;;;;;;;;;;5091620;27;20205;-75
2022/03/25 01:41:27;;;;;;;20.25;11.30;;;;;;;;;;5090662;27;20123;-75
2022/03/25 01:43:57;;;;;;;24.25;11.18;;;;;;;;;;5082201;27;20040;-75
2022/03/25 01:46:24;;;;;;;26.98;10.55;;;;;;;;;;5074429;28;20501;-75
2022/03/25 01:48:50;;;;;;;23.95;10.73;;;;;;;;;;5067082;28;20059;-75
2022/03/25 01:51:20;;;;;;;24.42;10.82;;;;;;;;;;5084914;27;20045;-75
2022/03/25 01:53:47;;;;;;;18.50;9.77;;;;;;;;;;5086332;27;20521;-75
2022/03/25 01:56:19;;;;;;;24.35;10.60;;;;;;;;;;5070391;28;20037;-75
2022/03/25 01:58:45;;;;;;;;;;;;;;;;;;5089107;27;20051;-75
2022/03/25 02:01:11;;;;;;;18.88;9.20;;;;;;;;;;5090994;27;20434;-75
2022/03/25 02:03:37;;;;;;;23.63;11.20;;;;;;;;;;5086308;27;20040;-75
2022/03/25 02:06:04;;;;;;;20.42;9.63;;;;;;;;;;5069424;28;20577;-75
2022/03/25 02:08:30;;;;;;;18.65;10.30;;;;;;;;;;5069354;28;20033;-75
2022/03/25 02:10:57;;;;;;;21.58;10.07;;;;;;;;;;5088505;27;20091;-75
2022/03/25 02:13:23;;;;;;;23.90;9.95;;;;;;;;;;5093407;27;20047;-75
2022/03/25 02:15:49;;;;;;;23.45;10.68;;;;;;;;;;5088759;27;20047;-75
2022/03/25 02:18:18;;;;;;;24.90;10.80;;;;;;;;;;5073607;28;20044;-75
2022/03/25 02:20:45;;;;;;;24.05;9.50;;;;;;;;;;5084020;27;20872;-75
2022/03/25 02:23:11;;;;;;;24.95;11.95;;;;;;;;;;5075083;28;20079;-75
2022/03/25 02:25:38;;;;;;;21.85;8.57;;;;;;;;;;5073075;27;21052;-75
2022/03/25 02:28:04;;;;;;;24.23;10.00;;;;;;;;;;5070569;28;20075;-75
2022/03/25 02:30:31;;;;;;;19.88;10.98;;;;;;;;;;5090102;27;20048;-75
2022/03/25 02:33:00;;;;;;;20.38;10.40;;;;;;;;;;5076573;28;20519;-75
2022/03/25 02:35:40;;;;;;;19.17;10.02;;;;;;;;;;5093626;27;20031;-75
2022/03/25 02:38:06;;;;;;;20.60;10.57;;;;;;;;;;5078928;28;20597;-75
2022/03/25 02:40:32;;;;;;;32.45;13.48;;;;;;;;;;5074492;28;20135;-75
2022/03/25 02:42:58;;;;;;;22.20;10.60;;;;;;;;;;5089192;27;20603;-75
2022/03/25 02:45:24;;;;;;;27.65;11.35;;;;;;;;;;5087077;27;20106;-75
2022/03/25 02:47:50;;;;;;;21.75;10.45;;;;;;;;;;5075562;28;20064;-75
2022/03/25 02:50:17;;;;;;;29.05;10.52;;;;;;;;;;5073020;28;20527;-75
2022/03/25 02:52:43;;;;;;;21.92;11.63;;;;;;;;;;5076807;28;20540;-75
2022/03/25 02:55:09;;;;;;;20.85;10.95;;;;;;;;;;5074323;28;20044;-75
2022/03/25 02:57:35;;;;;;;23.30;11.88;;;;;;;;;;5088241;27;20051;-75
2022/03/25 03:00:03;;;;;;;22.23;11.00;;;;;;;;;;5074979;27;20043;-75
2022/03/25 03:02:30;;;;;;;22.38;11.02;;;;;;;;;;5092040;27;20070;-75
2022/03/25 03:04:56;;;;;;;27.23;10.88;;;;;;;;;;5088844;27;20552;-75
2022/03/25 03:07:22;;;;;;;27.90;11.55;;;;;;;;;;5088324;27;20043;-75
2022/03/25 03:09:48;;;;;;;25.00;11.60;;;;;;;;;;5074344;27;20045;-75
2022/03/25 03:12:14;;;;;;;24.98;10.52;;;;;;;;;;5087858;27;20514;-75
2022/03/25 03:14:40;;;;;;;29.55;13.27;;;;;;;;;;5091049;27;20568;-75
2022/03/25 03:17:06;;;;;;;24.17;11.23;;;;;;;;;;5086662;27;20047;-75
2022/03/25 03:19:33;;;;;;;23.23;9.88;;;;;;;;;;5093859;27;20051;-75
2022/03/25 03:21:59;;;;;;;21.08;11.35;;;;;;;;;;5086974;27;20101;-75
2022/03/25 03:24:28;;;;;;;28.08;10.95;;;;;;;;;;5091655;27;20854;-75
2022/03/25 03:26:54;;;;;;;28.83;12.18;;;;;;;;;;5085576;27;20044;-75
2022/03/25 03:29:20;;;;;;;23.58;11.70;;;;;;;;;;5077062;28;20048;-75
2022/03/25 03:31:47;;;;;;;30.42;12.52;;;;;;;;;;5093159;27;20589;-75
2022/03/25 03:34:13;;;;;;;26.40;12.13;;;;;;;;;;5071624;27;20127;-75
2022/03/25 03:36:39;;;;;;;26.00;11.63;;;;;;;;;;5088274;27;20616;-75
2022/03/25 03:39:05;;;;;;;22.95;11.20;;;;;;;;;;5092290;27;20047;-75
2022/03/25 03:41:31;;;;;;;23.70;11.32;;;;;;;;;;5083928;27;20048;-75
2022/03/25 03:43:57;;;;;;;29.40;12.20;;;;;;;;;;5087440;27;20101;-75
2022/03/25 03:46:23;;;;;;;25.58;11.30;;;;;;;;;;5077930;28;20074;-75
2022/03/25 03:48:50;;;;;;;27.75;12.70;;;;;;;;;;5074980;28;20635;-75
2022/03/25 03:51:16;;;;;;;26.40;12.23;;;;;;;;;;5091542;27;20051;-75
2022/03/25 03:53:42;;;;;;;23.25;11.27;;;;;;;;;;5063754;28;20041;-75
2022/03/25 03:56:08;;;;;;;25.85;11.52;;;;;;;;;;5092435;27;20040;-75
2022/03/25 03:58:34;;;;;;;24.70;11.65;;;;;;;;;;5089924;27;20404;-75
2022/03/25 04:01:00;;;;;;;32.25;12.73;;;;;;;;;;5086937;27;20100;-75
2022/03/25 04:03:29;;;;;;;26.17;11.68;;;;;;;;;;5072141;28;20047;-75
2022/03/25 04:05:55;;;;;;;28.35;12.52;;;;;;;;;;5093679;27;20032;-75
2022/03/25 04:08:23;;;;;;;24.23;11.05;;;;;;;;;;5094145;27;20120;-75
2022/03/25 04:10:49;;;;;;;27.67;11.10;;;;;;;;;;5083242;27;20044;-75
2022/03/25 04:13:15;;;;;;;21.08;10.65;;;;;;;;;;5092117;27;20103;-75
2022/03/25 04:15:41;;;;;;;28.92;12.57;;;;;;;;;;5073115;27;21019;-75
2022/03/25 04:18:08;;;;;;;23.85;11.65;;;;;;;;;;5094469;27;20036;-75
2022/03/25 04:20:34;;;;;;;26.42;12.50;;;;;;;;;;5073107;27;20135;-75
2022/03/25 04:23:00;;;;;;;28.77;13.77;;;;;;;;;;5071659;28;20535;-75
2022/03/25 04:25:27;;;;;;;20.42;10.95;;;;;;;;;;5071813;28;20087;-75
2022/03/25 04:27:57;;;;;;;24.88;10.25;;;;;;;;;;5064476;28;20039;-74
2022/03/25 04:30:27;;;;;;;30.48;13.60;;;;;;;;;;5066596;28;20077;-75
2022/03/25 04:32:54;;;;;;;26.30;12.90;;;;;;;;;;5069026;28;20041;-75
2022/03/25 04:35:20;;;;;;;29.00;13.02;;;;;;;;;;5073050;28;20533;-74
2022/03/25 04:37:46;;;;;;;24.65;10.13;;;;;;;;;;5070595;28;20745;-74
2022/03/25 04:40:17;;;;;;;27.17;10.50;;;;;;;;;;5070930;28;20535;-74
2022/03/25 04:42:44;;;;;;;24.23;11.15;;;;;;;;;;5069478;28;20155;-74
2022/03/25 04:45:10;;;;;;;21.65;12.02;;;;;;;;;;5069873;28;20085;-74
2022/03/25 04:47:36;;;;;;;32.20;13.27;;;;;;;;;;5073424;28;20040;-75
2022/03/25 04:50:02;;;;;;;31.98;13.05;;;;;;;;;;5065924;28;20037;-75
2022/03/25 04:52:28;;;;;;;25.17;12.10;;;;;;;;;;5071256;28;20044;-74
2022/03/25 04:54:55;;;;;;;26.85;13.50;;;;;;;;;;5068622;28;20032;-75
2022/03/25 04:57:22;;;;;;;26.55;12.98;;;;;;;;;;5066372;28;20071;-74
2022/03/25 04:59:48;;;;;;;24.13;11.05;;;;;;;;;;5065724;28;20128;-75
2022/03/25 05:02:14;;;;;;;24.60;11.38;;;;;;;;;;5068446;28;20061;-75
2022/03/25 05:04:40;;;;;;;34.95;12.55;;;;;;;;;;5072174;28;20630;-75
2022/03/25 05:07:06;;;;;;;26.95;12.20;;;;;;;;;;5070387;28;20037;-75
2022/03/25 05:09:33;;;;;;;30.92;13.55;;;;;;;;;;5070442;28;20532;-75
2022/03/25 05:11:59;;;;;;;27.42;10.75;;;;;;;;;;5070659;27;20087;-75
2022/03/25 05:14:25;;;;;;;33.00;13.02;;;;;;;;;;5068603;28;20044;-74
2022/03/25 05:16:53;;;;;;;29.23;12.68;;;;;;;;;;5067027;28;20548;-75
2022/03/25 05:19:20;;;;;;;27.52;10.82;;;;;;;;;;5068220;28;20048;-75
2022/03/25 05:21:46;;;;;;;26.05;12.57;;;;;;;;;;5069921;27;20045;-75
2022/03/25 05:24:12;;;;;;;29.67;11.65;;;;;;;;;;5070334;28;20047;-75
2022/03/25 05:26:38;;;;;;;26.50;11.05;;;;;;;;;;5091336;27;20055;-75
2022/03/25 05:29:05;;;;;;;28.38;12.88;;;;;;;;;;5068574;28;20037;-74
2022/03/25 05:31:31;;;;;;;26.60;12.07;;;;;;;;;;5085360;27;20037;-74
2022/03/25 05:34:00;;;;;;;22.02;11.93;;;;;;;;;;5071894;27;20044;-74
2022/03/25 05:36:26;;;;;;;31.08;12.57;;;;;;;;;;5066306;28;20051;-74
2022/03/25 05:38:52;;;;;;;29.42;12.52;;;;;;;;;;5071660;28;20131;-75
2022/03/25 05:41:18;;;;;;;22.10;12.20;;;;;;;;;;5084729;27;20049;-75
2022/03/25 05:43:44;;;;;;;27.50;11.70;;;;;;;;;;5087252;27;20044;-74
2022/03/25 05:46:10;;;;;;;30.38;13.45;;;;;;;;;;5069006;28;20518;-75
2022/03/25 05:48:36;;;;;;;33.00;12.68;;;;;;;;;;5087180;27;20111;-74
2022/03/25 05:51:02;;;;;;;26.27;11.73;;;;;;;;;;5065294;28;20033;-75
2022/03/25 05:53:28;;;;;;;27.98;13.35;;;;;;;;;;5069913;28;20051;-75
2022/03/25 05:55:54;;;;;;;31.20;13.20;;;;;;;;;;5067595;28;20727;-74
2022/03/25 05:58:20;;;;;;;29.55;13.18;;;;;;;;;;5069702;28;20044;-74
2022/03/25 06:00:47;;;;;;;28.70;13.20;;;;;;;;;;5071368;27;20147;-74
2022/03/25 06:03:13;;;;;;;28.67;11.52;;;;;;;;;;5090971;27;20040;-74
2022/03/25 06:05:39;;;;;;;32.58;12.25;;;;;;;;;;5067528;27;20051;-75
2022/03/25 06:08:06;;;;;;;28.55;13.05;;;;;;;;;;5074890;27;20537;-74
2022/03/25 06:10:34;;;;;;;31.95;11.60;;;;;;;;;;5089530;27;20874;-74
2022/03/25 06:13:00;;;;;;;31.00;13.80;;;;;;;;;;5075327;27;20047;-74
2022/03/25 06:15:28;;;;;;;25.25;12.02;;;;;;;;;;5065971;27;20103;-75
2022/03/25 06:17:54;;;;;;;31.42;11.98;;;;;;;;;;5068803;27;20040;-78
2022/03/25 06:20:24;;;;;;;33.60;13.05;;;;;;;;;;5068058;27;20064;-75
2022/03/25 06:22:50;;;;;;;26.23;14.18;;;;;;;;;;5070664;27;20135;-76
2022/03/25 06:25:17;;;;;;;29.45;12.85;;;;;;;;;;5068343;27;20044;-75
2022/03/25 06:27:53;;;;;;;30.00;11.15;;;;;;;;;;5071989;27;20445;-76
2022/03/25 06:30:20;;;;;;;27.85;12.02;;;;;;;;;;5066921;27;20610;-75
2022/03/25 06:32:47;;;;;;;34.65;13.68;;;;;;;;;;5075181;27;20101;-75
2022/03/25 06:35:13;;;;;;;29.52;13.88;;;;;;;;;;5093081;27;20040;-75
2022/03/25 06:37:40;;;;;;;26.75;11.70;;;;;;;;;;5068525;27;20572;-76
2022/03/25 06:40:07;;;;;;;32.42;13.75;;;;;;;;;;5072754;28;20112;-75
2022/03/25 06:42:34;;;;;;;33.22;13.52;;;;;;;;;;5091624;27;20078;-75
2022/03/25 06:45:00;;;;;;;38.60;14.05;;;;;;;;;;5074548;27;20562;-75
2022/03/25 06:47:26;;;;;;;26.90;12.70;;;;;;;;;;5087526;27;20048;-75
2022/03/25 06:49:52;;;;;;;29.92;13.55;;;;;;;;;;5068002;27;20451;-75
2022/03/25 06:52:18;;;;;;;29.80;12.98;;;;;;;;;;5073986;27;20044;-75
2022/03/25 06:54:45;;;;;;;31.15;13.05;;;;;;;;;;5088066;27;20048;-75
2022/03/25 06:57:11;;;;;;;29.63;13.75;;;;;;;;;;5076258;28;20079;-75
2022/03/25 06:59:37;;;;;;;26.88;14.50;;;;;;;;;;5077604;27;20089;-75
2022/03/25 07:02:03;;;;;;;32.72;12.45;;;;;;;;;;5073778;27;20040;-75
2022/03/25 07:04:30;;;;;;;30.35;13.02;;;;;;;;;;5076062;27;20052;-75
2022/03/25 07:06:56;;;;;;;26.27;12.68;;;;;;;;;;5073490;28;20033;-74
2022/03/25 07:09:22;;;;;;;27.10;12.98;;;;;;;;;;5089984;27;20751;-74
2022/03/25 07:11:49;;;;;;;25.15;12.48;;;;;;;;;;5073616;28;20047;-75
2022/03/25 07:14:15;;;;;;;28.55;12.20;;;;;;;;;;5095096;27;20040;-75
2022/03/25 07:16:42;;;;;;;28.20;11.95;;;;;;;;;;5072676;28;20087;-75
2022/03/25 07:19:11;;;;;;;31.77;12.05;;;;;;;;;;5066957;28;20119;-75
2022/03/25 07:21:38;;;;;;;33.53;12.80;;;;;;;;;;5074234;28;20048;-75
2022/03/25 07:24:04;;;;;;;23.83;13.25;;;;;;;;;;5073812;28;20099;-74
2022/03/25 07:26:30;;;;;;;36.78;13.80;;;;;;;;;;5092138;27;20040;-75
2022/03/25 07:28:57;;;;;;;33.72;14.32;;;;;;;;;;5073907;28;20045;-75
2022/03/25 07:31:28;;;;;;;34.25;14.38;;;;;;;;;;5072560;28;20198;-73
2022/03/25 07:33:54;;;;;;;28.17;13.50;;;;;;;;;;5086970;27;20042;-75
2022/03/25 07:36:20;;;;;;;31.50;14.32;;;;;;;;;;5075376;28;20040;-73
2022/03/25 07:38:46;;;;;;;36.45;13.52;;;;;;;;;;5089934;27;20050;-73
2022/03/25 07:41:12;;;;;;;33.83;14.07;;;;;;;;;;5069810;28;20143;-72
2022/03/25 07:43:39;;;;;;;29.10;13.38;;;;;;;;;;5072091;28;20746;-74
2022/03/25 07:46:05;;;;;;;32.70;11.88;;;;;;;;;;5082131;27;20041;-73
2022/03/25 07:48:31;;;;;;;33.38;13.02;;;;;;;;;;5068723;28;20048;-74
2022/03/25 07:50:57;;;;;;;26.70;13.20;;;;;;;;;;5070907;28;20083;-73
2022/03/25 07:53:24;;;;;;;34.20;14.65;;;;;;;;;;5073686;27;20538;-73
2022/03/25 07:55:51;;;;;;;31.67;13.90;;;;;;;;;;5077194;28;20040;-73
2022/03/25 07:58:21;;;;;;;30.75;12.50;;;;;;;;;;5073943;28;20083;-73
2022/03/25 08:00:47;;;;;;;33.83;14.68;;;;;;;;;;5095075;27;20619;-74
2022/03/25 08:03:14;;;;;;;25.95;13.27;;;;;;;;;;5075553;27;20534;-73
2022/03/25 08:05:40;;;;;;;28.55;14.23;;;;;;;;;;5073451;28;20032;-73
2022/03/25 08:08:07;;;;;;;28.58;12.13;;;;;;;;;;5074145;27;20127;-74
2022/03/25 08:10:33;;;;;;;32.40;14.07;;;;;;;;;;5072982;27;20055;-73
2022/03/25 08:13:00;;;;;;;31.85;13.60;;;;;;;;;;5068383;27;20514;-73
2022/03/25 08:15:30;;;;;;;32.17;13.75;;;;;;;;;;5089078;27;20048;-73
2022/03/25 08:17:58;;;;;;;29.60;13.02;;;;;;;;;;5072302;27;20039;-73
2022/03/25 08:20:27;;;;;;;25.77;12.95;;;;;;;;;;5090258;27;20043;-74
2022/03/25 08:22:53;;;;;;;31.85;14.00;;;;;;;;;;5096086;27;20098;-74
2022/03/25 08:28:05;;;;;;;35.55;13.45;;;;;;;;;;5088378;27;20055;-73
2022/03/25 08:30:32;;;;;;;34.00;14.65;;;;;;;;;;5076105;28;20040;-74
2022/03/25 08:32:59;;;;;;;31.73;13.73;;;;;;;;;;5072080;28;20040;-73
2022/03/25 08:35:26;;;;;;;26.98;14.20;;;;;;;;;;5094556;27;20040;-73
2022/03/25 08:37:53;;;;;;;30.60;15.02;;;;;;;;;;5091212;27;20069;-73
2022/03/25 08:40:19;;;;;;;27.25;13.13;;;;;;;;;;5079798;28;20040;-73
2022/03/25 08:42:45;;;;;;;32.58;13.40;;;;;;;;;;5073596;27;20044;-74
2022/03/25 08:45:13;;;;;;;31.35;13.63;;;;;;;;;;5072180;27;20208;-74
2022/03/25 08:47:40;;;;;;;34.15;13.60;;;;;;;;;;5073774;28;20044;-74
2022/03/25 08:50:07;;;;;;;35.17;13.32;;;;;;;;;;5070698;28;20033;-74
2022/03/25 08:52:33;;;;;;;30.58;15.18;;;;;;;;;;5068763;28;20049;-74
2022/03/25 08:54:59;;;;;;;28.75;13.25;;;;;;;;;;5075083;28;20040;-74
2022/03/25 08:57:26;;;;;;;33.65;13.95;;;;;;;;;;5089701;27;20040;-73
2022/03/25 08:59:52;;;;;;;30.70;14.15;;;;;;;;;;5076264;27;20040;-74
2022/03/25 09:02:18;;;;;;;34.17;13.93;;;;;;;;;;5066950;27;20596;-74
2022/03/25 09:04:46;;;;;;;31.27;14.35;;;;;;;;;;5093475;27;20040;-74
2022/03/25 09:07:12;;;;;;;24.60;13.20;;;;;;;;;;5092608;27;20039;-73
2022/03/25 09:09:38;;;;;;;30.35;12.82;;;;;;;;;;5087377;27;20047;-74
2022/03/25 09:12:05;;;;;;;30.05;14.00;;;;;;;;;;5089809;27;20108;-74
2022/03/25 09:14:31;;;;;;;32.80;15.02;;;;;;;;;;5069847;27;20052;-73
2022/03/25 09:16:57;;;;;;;33.25;14.73;;;;;;;;;;5074289;27;20075;-74
2022/03/25 09:19:23;;;;;;;26.73;12.07;;;;;;;;;;5095927;27;20041;-74
2022/03/25 09:21:49;;;;;;;34.45;13.07;;;;;;;;;;5095645;27;20132;-74
2022/03/25 09:24:15;;;;;;;26.67;12.82;;;;;;;;;;5078294;27;20069;-73
2022/03/25 09:26:43;;;;;;;25.70;13.88;;;;;;;;;;5077268;27;20169;-74
2022/03/25 09:29:09;;;;;;;22.88;10.70;;;;;;;;;;5097286;27;20036;-73
2022/03/25 09:31:35;;;;;;;26.38;13.18;;;;;;;;;;5082952;27;20052;-73
2022/03/25 09:36:46;;;;;;;31.48;13.65;;;;;;;;;;5101603;27;20055;-74
2022/03/25 09:39:12;;;;;;;23.58;10.82;;;;;;;;;;5106326;27;20100;-74
2022/03/25 09:41:38;;;;;;;35.88;13.70;;;;;;;;;;5091078;27;20055;-74
2022/03/25 09:44:11;;;;;;;33.83;13.75;;;;;;;;;;5076555;27;20040;-74
2022/03/25 09:46:41;;;;;;;31.23;13.88;;;;;;;;;;5074733;27;20149;-75
2022/03/25 09:49:12;;;;;;;40.13;13.45;;;;;;;;;;5076384;28;20040;-73
2022/03/25 09:51:49;;;;;;;26.15;12.32;;;;;;;;;;5066468;28;20061;-74
2022/03/25 09:54:22;;;;;;;33.67;13.10;;;;;;;;;;5075664;28;20040;-74
2022/03/25 09:57:00;;;;;;;33.05;15.05;;;;;;;;;;5064785;28;20059;-74
2022/03/25 09:59:26;;;;;;;30.60;15.25;;;;;;;;;;5064864;28;20541;-74
2022/03/25 10:02:04;;;;;;;35.88;14.25;;;;;;;;;;5071109;28;20048;-74
2022/03/25 10:04:40;;;;;;;28.90;13.55;;;;;;;;;;5077189;27;20430;-74
2022/03/25 10:07:16;;;;;;;29.92;13.35;;;;;;;;;;5091359;27;20040;-74
2022/03/25 10:09:43;;;;;;;32.67;13.45;;;;;;;;;;5091366;27;20127;-74
2022/03/25 10:12:23;;;;;;;39.63;14.52;;;;;;;;;;5069442;27;20094;-74
2022/03/25 10:15:10;;;;;;;30.20;14.32;;;;;;;;;;5069694;28;20070;-73
2022/03/25 10:17:56;;;;;;;32.42;13.85;;;;;;;;;;5072802;28;20044;-75
2022/03/25 10:20:24;;;;;;;29.80;13.93;;;;;;;;;;5075017;27;20141;-74
2022/03/25 10:23:00;;;;;;;33.38;15.10;;;;;;;;;;5070264;28;20497;-74
2022/03/25 10:25:41;;;;;;;29.17;13.43;;;;;;;;;;5067295;28;20898;-74
2022/03/25 10:28:18;;;;;;;49.25;15.23;;;;;;;;;;5071788;28;20132;-74
2022/03/25 10:30:47;;;;;;;29.30;14.57;;;;;;;;;;5066757;28;20509;-74
2022/03/25 10:33:14;;;;;;;31.92;14.40;;;;;;;;;;5075675;27;20040;-74
2022/03/25 10:36:09;;;;;;;34.17;14.88;;;;;;;;;;5077611;28;20075;-74
2022/03/25 10:38:47;;;;;;;28.13;14.93;;;;;;;;;;5085761;27;20170;-74
2022/03/25 10:41:20;;;;;;;25.10;11.13;;;;;;;;;;5070054;28;20514;-74
2022/03/25 10:43:51;;;;;;;40.38;17.40;;;;;;;;;;5070957;28;20538;-73
2022/03/25 10:46:46;;;;;;;42.95;13.98;;;;;;;;;;5076473;28;20052;-74
2022/03/25 10:49:14;;;;;;;34.42;15.30;;;;;;;;;;5060853;28;20048;-74
2022/03/25 10:51:41;;;;;;;35.08;16.08;;;;;;;;;;5075526;28;22209;-75
2022/03/25 10:54:08;;;;;;;35.40;16.73;;;;;;;;;;5072611;28;20131;-75
2022/03/25 10:56:49;;;;;;;42.17;17.25;;;;;;;;;;5070844;28;20047;-74
2022/03/25 10:59:27;;;;;;;34.47;16.70;;;;;;;;;;5074503;28;20320;-74
2022/03/25 11:01:54;;;;;;;31.70;17.25;;;;;;;;;;5069423;28;20039;-74
2022/03/25 11:04:20;;;;;;;33.00;15.98;;;;;;;;;;5074385;28;20045;-75
2022/03/25 11:06:47;;;;;;;33.92;14.98;;;;;;;;;;5077078;28;20041;-75
2022/03/25 11:09:14;;;;;;;30.38;14.55;;;;;;;;;;5077166;28;20126;-74
2022/03/25 11:11:44;;;;;;;37.40;16.92;;;;;;;;;;5073745;28;20044;-75
2022/03/25 11:14:11;;;;;;;33.25;15.52;;;;;;;;;;5076639;28;21235;-75
2022/03/25 11:16:41;;;;;;;32.75;14.77;;;;;;;;;;5073785;28;20044;-74
2022/03/25 11:19:09;;;;;;;35.22;14.57;;;;;;;;;;5068325;28;20041;-74
2022/03/25 11:21:39;;;;;;;32.88;15.07;;;;;;;;;;5068154;28;20044;-74
2022/03/25 11:24:06;;;;;;;34.13;15.80;;;;;;;;;;5090162;27;20572;-74
2022/03/25 11:26:37;;;;;;;31.88;15.85;;;;;;;;;;5079645;28;20127;-74
2022/03/25 11:29:07;;;;;;;33.83;17.13;;;;;;;;;;5092380;27;20044;-74
2022/03/25 11:31:53;;;;;;;37.50;15.35;;;;;;;;;;5075210;27;20036;-74
2022/03/25 11:34:25;;;;;;;32.83;16.50;;;;;;;;;;5093424;27;20075;-74
2022/03/25 11:37:11;;;;;;;31.48;15.15;;;;;;;;;;5079568;27;20055;-75
2022/03/25 11:39:37;;;;;;;36.13;17.05;;;;;;;;;;5095357;27;20032;-74
2022/03/25 11:42:04;;;;;;;36.90;15.60;;;;;;;;;;5079956;28;20040;-74
2022/03/25 11:44:30;;;;;;;28.50;15.50;;;;;;;;;;5093998;27;20570;-74
2022/03/25 11:46:59;;;;;;;34.97;17.25;;;;;;;;;;5079981;28;20112;-74
2022/03/25 11:49:26;;;;;;;29.73;15.32;;;;;;;;;;5076342;28;20127;-75
2022/03/25 11:51:52;;;;;;;26.88;13.38;;;;;;;;;;5073135;27;20647;-75
2022/03/25 11:54:38;;;;;;;38.75;16.05;;;;;;;;;;5088987;27;20064;-75
2022/03/25 11:57:05;;;;;;;30.05;15.95;;;;;;;;;;5073374;27;20032;-75
2022/03/25 11:59:51;;;;;;;32.40;15.63;;;;;;;;;;5085251;27;20502;-75
2022/03/25 12:02:30;;;;;;;27.33;12.63;;;;;;;;;;5075618;27;20040;-75
2022/03/25 12:04:58;;;;;;;29.80;12.95;;;;;;;;;;5073313;27;20204;-75
2022/03/25 12:07:24;;;;;;;29.30;14.23;;;;;;;;;;5070232;28;20530;-75
2022/03/25 12:09:50;;;;;;;35.00;15.70;;;;;;;;;;5075827;27;20658;-75
2022/03/25 12:12:16;;;;;;;30.10;15.48;;;;;;;;;;5091598;27;20040;-74
2022/03/25 12:15:10;;;;;;;36.30;15.52;;;;;;;;;;5069084;28;20049;-75
2022/03/25 12:17:37;;;;;;;27.98;14.07;;;;;;;;;;5091088;27;20045;-75
2022/03/25 12:20:04;;;;;;;29.13;14.48;;;;;;;;;;5075782;27;20504;-74
2022/03/25 12:22:36;;;;;;;30.88;14.43;;;;;;;;;;5069414;27;20458;-78
2022/03/25 12:25:17;;;;;;;32.30;14.25;;;;;;;;;;5076855;27;20512;-76
2022/03/25 12:27:44;;;;;;;30.90;16.58;;;;;;;;;;5065946;27;20048;-75
2022/03/25 12:30:11;;;;;;;25.42;15.05;;;;;;;;;;5075550;28;20036;-75
2022/03/25 12:32:38;;;;;;;30.88;13.65;;;;;;;;;;5075173;27;20123;-76
2022/03/25 12:35:08;;;;;;;29.23;12.55;;;;;;;;;;5074657;27;20041;-75
2022/03/25 12:37:49;;;;;;;36.47;13.65;;;;;;;;;;5068084;27;20406;-75
2022/03/25 12:40:15;;;;;;;24.70;11.82;;;;;;;;;;5072154;28;20522;-75
2022/03/25 12:42:42;;;;;;;27.55;14.02;;;;;;;;;;5089405;27;20599;-76
2022/03/25 12:45:09;;;;;;;34.85;15.20;;;;;;;;;;5069983;27;20145;-76
2022/03/25 12:47:36;;;;;;;32.60;14.30;;;;;;;;;;5093264;27;20458;-75
2022/03/25 12:50:06;;;;;;;33.30;16.02;;;;;;;;;;5089953;27;20047;-75
2022/03/25 12:52:32;;;;;;;29.35;15.60;;;;;;;;;;5077701;27;20032;-75
2022/03/25 12:55:06;;;;;;;29.48;13.73;;;;;;;;;;5077873;27;20220;-75
2022/03/25 12:57:34;;;;;;;35.53;14.68;;;;;;;;;;5064763;28;20120;-75
2022/03/25 13:00:01;;;;;;;27.00;11.40;;;;;;;;;;5069546;28;20091;-76
2022/03/25 13:02:31;;;;;;;37.40;16.25;;;;;;;;;;5094246;27;20067;-75
2022/03/25 13:05:25;;;;;;;31.75;15.73;;;;;;;;;;5075472;28;20074;-75
2022/03/25 13:07:58;;;;;;;30.85;14.68;;;;;;;;;;5086685;27;20044;-75
2022/03/25 13:10:24;;;;;;;34.90;14.00;;;;;;;;;;5088596;27;20135;-75
2022/03/25 13:12:54;;;;;;;28.75;14.27;;;;;;;;;;5072105;27;20032;-75
2022/03/25 13:15:25;;;;;;;29.95;13.05;;;;;;;;;;5071617;27;20685;-75
2022/03/25 13:17:52;;;;;;;28.95;15.00;;;;;;;;;;5070641;27;20040;-75
2022/03/25 13:20:19;;;;;;;31.48;13.45;;;;;;;;;;5096180;27;20115;-75
2022/03/25 13:23:04;;;;;;;29.35;13.55;;;;;;;;;;5089393;27;20040;-75
2022/03/25 13:25:36;;;;;;;28.05;13.77;;;;;;;;;;5097297;27;20442;-75
2022/03/25 13:28:03;;;;;;;27.15;15.48;;;;;;;;;;5076688;28;20466;-75
2022/03/25 13:30:29;;;;;;;29.73;14.57;;;;;;;;;;5079192;28;20071;-76
2022/03/25 13:33:06;;;;;;;24.88;12.25;;;;;;;;;;5087985;27;20051;-75
2022/03/25 13:35:36;;;;;;;33.10;14.93;;;;;;;;;;5070591;28;20747;-75
2022/03/25 13:38:04;;;;;;;26.40;12.27;;;;;;;;;;5069874;28;20548;-75
2022/03/25 13:40:32;;;;;;;27.90;12.05;;;;;;;;;;5094243;27;20342;-75
2022/03/25 13:42:59;;;;;;;30.45;13.32;;;;;;;;;;5070644;28;20029;-75
2022/03/25 13:45:25;;;;;;;24.73;14.38;;;;;;;;;;5088561;27;20028;-75
2022/03/25 13:48:10;;;;;;;34.00;14.98;;;;;;;;;;5075529;28;20529;-75
2022/03/25 13:50:46;;;;;;;25.58;12.98;;;;;;;;;;5069686;27;20727;-75
2022/03/25 13:53:14;;;;;;;28.90;12.57;;;;;;;;;;5096512;27;20234;-76
2022/03/25 13:55:41;;;;;;;32.00;16.17;;;;;;;;;;5075297;27;20048;-75
2022/03/25 13:58:15;;;;;;;30.90;15.18;;;;;;;;;;5075961;27;20123;-75
2022/03/25 14:00:42;;;;;;;24.48;11.50;;;;;;;;;;5068035;28;20931;-75
2022/03/25 14:03:09;;;;;;;29.90;14.32;;;;;;;;;;5074688;27;20036;-75
2022/03/25 14:05:36;;;;;;;27.83;12.50;;;;;;;;;;5083661;27;20048;-75
2022/03/25 14:08:03;;;;;;;31.17;14.82;;;;;;;;;;5093735;27;20160;-75
2022/03/25 14:10:29;;;;;;;25.42;14.02;;;;;;;;;;5093592;27;20072;-76
2022/03/25 14:12:56;;;;;;;37.25;17.45;;;;;;;;;;5092147;27;20122;-76
2022/03/25 14:15:25;;;;;;;32.20;14.68;;;;;;;;;;5075665;27;20044;-75
2022/03/25 14:17:52;;;;;;;27.48;15.30;;;;;;;;;;5069734;27;20070;-76
2022/03/25 14:20:20;;;;;;;22.75;13.43;;;;;;;;;;5074198;27;20059;-75
2022/03/25 14:22:54;;;;;;;31.48;15.75;;;;;;;;;;5072310;28;20446;-76
2022/03/25 14:25:22;;;;;;;32.08;16.70;;;;;;;;;;5075704;28;20072;-76
2022/03/25 14:27:53;;;;;;;33.33;17.75;;;;;;;;;;5071989;28;20123;-75
2022/03/25 14:30:20;;;;;;;34.65;15.38;;;;;;;;;;5072598;28;20106;-75